createdAt,value
2018-05-13T00:02:04.665Z,11.90
2018-05-13T00:04:31.436Z,11.90
2018-05-13T00:06:58.251Z,11.83
2018-05-13T00:09:24.939Z,13.90
2018-05-13T00:11:51.623Z,12.60
2018-05-13T00:14:18.324Z,11.33
2018-05-13T00:16:45.020Z,12.60
2018-05-13T00:19:11.732Z,12.17
2018-05-13T00:21:38.404Z,11.90
2018-05-13T00:24:05.215Z,12.17
2018-05-13T00:26:31.887Z,11.23
2018-05-13T00:28:58.663Z,14.13
2018-05-13T00:31:25.384Z,12.63
2018-05-13T00:33:52.067Z,12.90
2018-05-13T00:36:18.771Z,12.33
2018-05-13T00:38:45.515Z,13.00
2018-05-13T00:41:12.218Z,12.87
2018-05-13T00:43:38.910Z,11.97
2018-05-13T00:46:05.595Z,11.07
2018-05-13T00:48:32.295Z,12.40
2018-05-13T00:50:59.071Z,13.13
2018-05-13T00:53:25.773Z,12.87
2018-05-13T00:55:52.462Z,12.07
2018-05-13T00:58:19.162Z,12.27
2018-05-13T01:00:45.848Z,11.20
2018-05-13T01:03:12.795Z,13.50
2018-05-13T01:05:39.469Z,13.47
2018-05-13T01:08:06.163Z,12.70
2018-05-13T01:10:32.848Z,12.80
2018-05-13T01:12:59.556Z,12.83
2018-05-13T01:15:26.341Z,12.73
2018-05-13T01:17:53.051Z,12.20
2018-05-13T01:20:19.901Z,11.80
2018-05-13T01:22:46.514Z,12.23
2018-05-13T01:25:13.208Z,13.73
2018-05-13T01:27:39.899Z,13.97
2018-05-13T01:30:06.596Z,12.83
2018-05-13T01:32:33.300Z,11.30
2018-05-13T01:34:59.976Z,10.90
2018-05-13T01:37:26.705Z,10.43
2018-05-13T01:39:53.541Z,11.33
2018-05-13T01:42:20.242Z,12.83
2018-05-13T01:44:47.060Z,12.53
2018-05-13T01:47:13.788Z,11.87
2018-05-13T01:49:40.465Z,11.90
2018-05-13T01:52:07.210Z,13.40
2018-05-13T01:54:33.896Z,12.20
2018-05-13T01:57:00.695Z,12.33
2018-05-13T01:59:27.400Z,10.80
2018-05-13T02:01:54.216Z,12.43
2018-05-13T02:04:21.001Z,12.00
2018-05-13T02:06:47.683Z,11.57
2018-05-13T02:09:14.471Z,9.97
2018-05-13T02:11:41.152Z,12.97
2018-05-13T02:14:07.864Z,11.70
2018-05-13T02:16:34.803Z,12.03
2018-05-13T02:19:01.596Z,12.47
2018-05-13T02:21:28.301Z,12.63
2018-05-13T02:23:54.989Z,11.17
2018-05-13T02:26:21.699Z,11.10
2018-05-13T02:28:48.375Z,11.83
2018-05-13T02:31:15.099Z,11.63
2018-05-13T02:33:41.799Z,12.27
2018-05-13T02:36:08.485Z,11.30
2018-05-13T02:38:35.187Z,11.70
2018-05-13T02:41:02.084Z,12.30
2018-05-13T02:43:28.796Z,11.10
2018-05-13T02:45:55.523Z,11.90
2018-05-13T02:48:22.228Z,11.70
2018-05-13T02:50:48.919Z,13.03
2018-05-13T02:53:15.617Z,14.50
2018-05-13T02:55:42.319Z,12.93
2018-05-13T02:58:09.768Z,12.60
2018-05-13T03:00:36.647Z,13.33
2018-05-13T03:03:03.352Z,13.70
2018-05-13T03:05:30.056Z,13.40
2018-05-13T03:07:56.807Z,12.23
2018-05-13T03:10:23.511Z,12.80
2018-05-13T03:12:50.213Z,12.83
2018-05-13T03:15:16.936Z,13.17
2018-05-13T03:17:43.628Z,13.80
2018-05-13T03:20:10.305Z,13.30
2018-05-13T03:22:37.027Z,13.93
2018-05-13T03:25:03.735Z,12.73
2018-05-13T03:27:30.432Z,14.00
2018-05-13T03:29:57.280Z,13.40
2018-05-13T03:32:23.996Z,13.73
2018-05-13T03:34:50.969Z,13.47
2018-05-13T03:37:17.767Z,12.53
2018-05-13T03:39:44.503Z,11.73
2018-05-13T03:42:11.190Z,14.07
2018-05-13T03:44:37.903Z,15.07
2018-05-13T03:47:04.605Z,12.33
2018-05-13T03:49:31.463Z,14.23
2018-05-13T03:51:58.154Z,15.07
2018-05-13T03:54:24.851Z,14.33
2018-05-13T03:56:51.559Z,12.40
2018-05-13T03:59:18.267Z,15.70
2018-05-13T04:01:44.971Z,12.63
2018-05-13T04:04:11.757Z,16.37
2018-05-13T04:06:38.462Z,15.90
2018-05-13T04:09:10.973Z,15.33
2018-05-13T04:11:43.572Z,14.50
2018-05-13T04:14:15.999Z,16.17
2018-05-13T04:16:42.709Z,14.47
2018-05-13T04:19:09.393Z,15.10
2018-05-13T04:21:36.077Z,15.40
2018-05-13T04:24:02.771Z,16.90
2018-05-13T04:26:29.465Z,16.23
2018-05-13T04:28:56.196Z,15.73
2018-05-13T04:31:22.935Z,17.53
2018-05-13T04:33:49.648Z,17.60
2018-05-13T04:36:16.332Z,17.60
2018-05-13T04:38:43.069Z,17.00
2018-05-13T04:41:09.759Z,17.50
2018-05-13T04:43:36.459Z,18.00
2018-05-13T04:46:03.155Z,17.57
2018-05-13T04:48:29.868Z,17.93
2018-05-13T04:50:56.577Z,17.80
2018-05-13T04:53:23.317Z,17.20
2018-05-13T04:55:49.974Z,17.60
2018-05-13T04:58:17.543Z,17.50
2018-05-13T05:00:44.251Z,16.37
2018-05-13T05:03:11.125Z,18.93
2018-05-13T05:05:37.798Z,17.50
2018-05-13T05:08:04.493Z,19.07
2018-05-13T05:10:31.175Z,18.87
2018-05-13T05:12:57.888Z,18.90
2018-05-13T05:15:25.014Z,18.13
2018-05-13T05:17:51.749Z,19.20
2018-05-13T05:20:18.526Z,18.60
2018-05-13T05:22:45.209Z,18.27
2018-05-13T05:25:11.915Z,17.70
2018-05-13T05:27:38.664Z,17.60
2018-05-13T05:30:05.371Z,18.90
2018-05-13T05:32:32.240Z,15.80
2018-05-13T05:34:58.931Z,17.53
2018-05-13T05:37:25.625Z,17.90
2018-05-13T05:39:52.336Z,19.37
2018-05-13T05:42:19.033Z,17.20
2018-05-13T05:44:45.770Z,17.50
2018-05-13T05:47:12.479Z,19.70
2018-05-13T05:49:39.168Z,19.70
2018-05-13T05:52:05.864Z,20.67
2018-05-13T05:54:32.623Z,21.10
2018-05-13T05:56:59.321Z,26.87
2018-05-13T05:59:26.136Z,30.33
2018-05-13T06:01:52.834Z,31.90
2018-05-13T06:04:19.540Z,31.00
2018-05-13T06:06:46.249Z,32.50
2018-05-13T06:09:12.939Z,34.00
2018-05-13T06:11:39.627Z,33.00
2018-05-13T06:14:06.339Z,31.87
2018-05-13T06:16:33.028Z,35.00
2018-05-13T06:18:59.837Z,32.07
2018-05-13T06:21:26.519Z,31.33
2018-05-13T06:23:53.214Z,33.27
2018-05-13T06:26:19.920Z,33.33
2018-05-13T06:28:46.683Z,35.07
2018-05-13T06:31:13.389Z,32.47
2018-05-13T06:33:40.071Z,35.10
2018-05-13T06:36:06.795Z,36.10
2018-05-13T06:38:33.662Z,33.97
2018-05-13T06:41:00.379Z,34.13
2018-05-13T06:43:27.083Z,34.30
2018-05-13T06:45:55.579Z,33.57
2018-05-13T06:48:23.106Z,36.33
2018-05-13T06:50:49.860Z,32.83
2018-05-13T06:53:17.527Z,34.97
2018-05-13T06:55:44.212Z,33.30
2018-05-13T06:58:11.380Z,32.77
2018-05-13T07:00:42.680Z,32.47
2018-05-13T07:03:11.483Z,33.33
2018-05-13T07:05:41.101Z,32.50
2018-05-13T07:08:07.835Z,33.67
2018-05-13T07:10:35.531Z,32.10
2018-05-13T07:13:02.835Z,32.10
2018-05-13T07:15:30.869Z,34.00
2018-05-13T07:17:58.947Z,35.43
2018-05-13T07:20:26.500Z,34.73
2018-05-13T07:25:32.463Z,47.93
2018-05-13T07:27:59.175Z,41.73
2018-05-13T07:30:25.880Z,41.10
2018-05-13T07:32:55.725Z,41.07
2018-05-13T07:35:24.060Z,50.03
2018-05-13T07:37:50.848Z,45.20
2018-05-13T07:40:18.098Z,42.13
2018-05-13T07:42:45.819Z,41.87
2018-05-13T07:45:12.551Z,46.53
2018-05-13T07:47:39.245Z,42.60
2018-05-13T07:50:05.932Z,40.77
2018-05-13T07:52:33.131Z,39.83
2018-05-13T07:54:59.817Z,37.60
2018-05-13T07:57:27.341Z,35.30
2018-05-13T07:59:55.140Z,35.17
2018-05-13T08:02:23.737Z,35.60
2018-05-13T08:04:51.404Z,36.87
2018-05-13T08:07:18.272Z,36.67
2018-05-13T08:09:46.548Z,38.00
2018-05-13T08:12:14.229Z,35.07
2018-05-13T08:14:41.447Z,37.57
2018-05-13T08:17:08.399Z,36.73
2018-05-13T08:19:35.207Z,34.80
2018-05-13T08:22:02.337Z,37.93
2018-05-13T08:24:29.053Z,38.07
2018-05-13T08:26:55.737Z,40.20
2018-05-13T08:29:22.453Z,39.87
2018-05-13T08:31:50.908Z,40.97
2018-05-13T08:34:17.627Z,41.03
2018-05-13T08:36:44.336Z,43.07
2018-05-13T08:39:11.824Z,43.13
2018-05-13T08:41:39.474Z,44.33
2018-05-13T08:44:06.184Z,45.13
2018-05-13T08:46:35.087Z,46.13
2018-05-13T08:49:01.839Z,46.70
2018-05-13T08:51:30.807Z,49.77
2018-05-13T08:53:57.547Z,51.23
2018-05-13T08:56:24.203Z,50.97
2018-05-13T08:58:50.905Z,52.77
2018-05-13T09:01:17.635Z,55.90
2018-05-13T09:03:44.902Z,56.27
2018-05-13T09:06:12.110Z,58.47
2018-05-13T09:08:38.819Z,64.35
2018-05-13T09:11:05.531Z,62.43
2018-05-13T09:13:32.356Z,65.53
2018-05-13T09:15:59.063Z,67.30
2018-05-13T09:18:30.097Z,71.20
2018-05-13T09:20:56.839Z,74.63
2018-05-13T09:23:23.516Z,75.83
2018-05-13T09:25:50.252Z,74.57
2018-05-13T09:28:16.991Z,75.77
2018-05-13T09:30:43.869Z,69.47
2018-05-13T09:33:11.377Z,72.73
2018-05-13T09:35:38.093Z,70.67
2018-05-13T09:38:06.510Z,74.80
2018-05-13T09:40:34.423Z,68.47
2018-05-13T09:43:01.883Z,72.13
2018-05-13T09:45:29.434Z,78.23
2018-05-13T09:47:57.034Z,74.87
2018-05-13T09:50:24.711Z,79.20
2018-05-13T09:52:52.883Z,78.30
2018-05-13T09:55:22.885Z,77.90
2018-05-13T09:57:49.590Z,78.83
2018-05-13T10:00:16.299Z,80.50
2018-05-13T10:02:43.367Z,76.83
2018-05-13T10:05:10.940Z,71.90
2018-05-13T10:07:38.461Z,81.93
2018-05-13T10:10:06.196Z,82.77
2018-05-13T10:12:33.675Z,79.80
2018-05-13T10:15:01.760Z,87.20
2018-05-13T10:17:28.474Z,82.67
2018-05-13T10:19:55.331Z,89.03
2018-05-13T10:22:23.419Z,94.70
2018-05-13T10:24:51.181Z,89.23
2018-05-13T10:27:20.067Z,87.60
2018-05-13T10:29:46.752Z,91.80
2018-05-13T10:32:13.456Z,88.47
2018-05-13T10:34:41.143Z,89.00
2018-05-13T10:37:07.828Z,90.87
2018-05-13T10:39:36.896Z,91.70
2018-05-13T10:42:03.587Z,94.67
2018-05-13T10:44:30.296Z,94.63
2018-05-13T10:46:57.892Z,91.63
2018-05-13T10:49:24.592Z,89.20
2018-05-13T10:51:52.220Z,89.83
2018-05-13T10:54:19.476Z,90.70
2018-05-13T10:56:47.703Z,97.60
2018-05-13T10:59:14.410Z,97.47
2018-05-13T11:01:41.139Z,99.90
2018-05-13T11:04:07.836Z,97.87
2018-05-13T11:06:34.533Z,89.77
2018-05-13T11:09:01.323Z,91.30
2018-05-13T11:11:28.088Z,84.23
2018-05-13T11:13:54.901Z,81.80
2018-05-13T11:16:21.592Z,78.93
2018-05-13T11:18:49.020Z,71.50
2018-05-13T11:21:15.728Z,73.27
2018-05-13T11:23:43.487Z,87.80
2018-05-13T11:26:11.421Z,72.97
2018-05-13T11:28:38.165Z,78.87
2018-05-13T11:31:07.102Z,82.20
2018-05-13T11:33:33.788Z,79.50
2018-05-13T11:36:00.520Z,80.27
2018-05-13T11:38:27.176Z,71.70
2018-05-13T11:40:53.893Z,85.47
2018-05-13T11:43:21.381Z,83.93
2018-05-13T11:45:48.093Z,82.30
2018-05-13T11:48:14.786Z,77.37
2018-05-13T11:50:42.286Z,67.47
2018-05-13T11:53:09.171Z,63.63
2018-05-13T11:55:36.713Z,66.57
2018-05-13T11:58:03.424Z,69.40
2018-05-13T12:00:30.588Z,69.27
2018-05-13T12:02:59.183Z,66.37
2018-05-13T12:05:25.887Z,67.60
2018-05-13T12:07:52.709Z,65.83
2018-05-13T12:10:21.417Z,69.13
2018-05-13T12:12:48.170Z,62.13
2018-05-13T12:15:14.926Z,67.30
2018-05-13T12:17:41.603Z,72.03
2018-05-13T12:20:11.136Z,65.07
2018-05-13T12:22:37.827Z,67.33
2018-05-13T12:25:04.537Z,66.37
2018-05-13T12:27:32.664Z,63.83
2018-05-13T12:29:59.354Z,67.33
2018-05-13T12:32:26.952Z,61.00
2018-05-13T12:34:53.786Z,70.47
2018-05-13T12:37:20.989Z,68.67
2018-05-13T12:39:47.874Z,64.97
2018-05-13T12:42:14.816Z,62.63
2018-05-13T12:44:41.531Z,63.47
2018-05-13T12:47:08.362Z,62.67
2018-05-13T12:49:35.063Z,59.77
2018-05-13T12:52:01.797Z,57.17
2018-05-13T12:54:32.032Z,58.77
2018-05-13T12:56:58.779Z,62.77
2018-05-13T12:59:25.530Z,62.10
2018-05-13T13:01:53.181Z,65.10
2018-05-13T13:04:19.926Z,66.10
2018-05-13T13:06:46.681Z,65.47
2018-05-13T13:09:15.376Z,68.53
2018-05-13T13:11:42.696Z,69.10
2018-05-13T13:14:10.431Z,64.87
2018-05-13T13:16:37.113Z,67.57
2018-05-13T13:19:04.331Z,58.50
2018-05-13T13:21:31.829Z,64.87
2018-05-13T13:23:59.280Z,64.83
2018-05-13T13:26:26.133Z,65.93
2018-05-13T13:28:52.827Z,63.60
2018-05-13T13:31:20.530Z,68.40
2018-05-13T13:33:47.232Z,68.47
2018-05-13T13:36:14.025Z,63.57
2018-05-13T13:38:41.456Z,65.57
2018-05-13T13:41:08.885Z,61.77
2018-05-13T13:43:35.594Z,63.83
2018-05-13T13:46:02.355Z,56.00
2018-05-13T13:48:29.812Z,59.67
2018-05-13T13:50:57.466Z,61.20
2018-05-13T13:53:25.275Z,62.43
2018-05-13T13:55:53.821Z,57.87
2018-05-13T13:58:20.553Z,61.83
2018-05-13T14:00:47.233Z,60.90
2018-05-13T14:03:13.984Z,59.47
2018-05-13T14:05:40.700Z,59.40
2018-05-13T14:08:07.368Z,57.20
2018-05-13T14:10:34.793Z,57.07
2018-05-13T14:13:01.511Z,55.70
2018-05-13T14:15:29.083Z,56.87
2018-05-13T14:17:57.371Z,56.33
2018-05-13T14:20:24.132Z,58.63
2018-05-13T14:22:50.788Z,60.27
2018-05-13T14:25:17.499Z,54.43
2018-05-13T14:27:44.264Z,54.77
2018-05-13T14:30:10.971Z,56.00
2018-05-13T14:32:38.261Z,53.53
2018-05-13T14:35:05.685Z,59.37
2018-05-13T14:37:32.446Z,55.90
2018-05-13T14:39:59.165Z,53.70
2018-05-13T14:42:27.129Z,58.80
2018-05-13T14:44:53.818Z,60.70
2018-05-13T14:47:21.257Z,62.23
2018-05-13T14:49:48.576Z,57.20
2018-05-13T14:52:17.992Z,56.00
2018-05-13T14:54:44.671Z,56.47
2018-05-13T14:57:12.227Z,56.73
2018-05-13T14:59:38.962Z,56.50
2018-05-13T15:02:06.208Z,59.07
2018-05-13T15:04:34.188Z,58.73
2018-05-13T15:07:00.886Z,59.77
2018-05-13T15:09:29.261Z,62.53
2018-05-13T15:11:55.992Z,56.93
2018-05-13T15:14:22.703Z,56.67
2018-05-13T15:16:50.083Z,59.23
2018-05-13T15:19:16.844Z,52.77
2018-05-13T15:21:44.327Z,54.47
2018-05-13T15:24:12.522Z,55.70
2018-05-13T15:26:40.080Z,56.93
2018-05-13T15:29:06.855Z,56.20
2018-05-13T15:31:33.520Z,59.93
2018-05-13T15:34:00.215Z,55.73
2018-05-13T15:36:27.791Z,52.10
2018-05-13T15:38:54.507Z,52.77
2018-05-13T15:41:22.020Z,53.37
2018-05-13T15:43:48.720Z,53.43
2018-05-13T15:46:16.279Z,52.07
2018-05-13T15:48:42.967Z,54.80
2018-05-13T15:51:09.673Z,52.00
2018-05-13T15:53:36.452Z,53.73
2018-05-13T15:56:03.153Z,55.90
2018-05-13T15:58:30.145Z,62.67
2018-05-13T16:00:56.888Z,57.57
2018-05-13T16:03:24.590Z,52.53
2018-05-13T16:05:51.328Z,52.17
2018-05-13T16:08:18.816Z,61.20
2018-05-13T16:10:45.516Z,54.10
2018-05-13T16:13:13.304Z,57.10
2018-05-13T16:15:40.104Z,55.03
2018-05-13T16:18:08.024Z,56.33
2018-05-13T16:20:34.758Z,54.93
2018-05-13T16:23:02.971Z,53.47
2018-05-13T16:25:30.522Z,54.23
2018-05-13T16:28:00.099Z,54.33
2018-05-13T16:30:27.048Z,53.30
2018-05-13T16:32:53.664Z,55.70
2018-05-13T16:35:21.021Z,52.93
2018-05-13T16:37:47.845Z,51.67
2018-05-13T16:40:14.561Z,56.33
2018-05-13T16:42:45.636Z,55.17
2018-05-13T16:45:12.450Z,55.90
2018-05-13T16:47:39.798Z,55.13
2018-05-13T16:50:07.360Z,53.63
2018-05-13T16:52:34.079Z,53.30
2018-05-13T16:55:00.776Z,54.93
2018-05-13T16:57:27.592Z,54.77
2018-05-13T16:59:54.327Z,55.33
2018-05-13T17:02:22.125Z,55.20
2018-05-13T17:04:49.310Z,59.23
2018-05-13T17:07:17.894Z,55.83
2018-05-13T17:09:44.652Z,57.93
2018-05-13T17:12:11.351Z,54.30
2018-05-13T17:14:38.061Z,59.80
2018-05-13T17:17:04.825Z,53.80
2018-05-13T17:19:33.613Z,62.00
2018-05-13T17:22:01.204Z,57.40
2018-05-13T17:24:28.883Z,59.47
2018-05-13T17:26:56.891Z,61.80
2018-05-13T17:29:23.870Z,56.90
2018-05-13T17:31:51.200Z,60.73
2018-05-13T17:34:20.041Z,60.57
2018-05-13T17:36:46.776Z,58.10
2018-05-13T17:39:14.412Z,62.73
2018-05-13T17:41:42.202Z,58.00
2018-05-13T17:44:09.780Z,59.00
2018-05-13T17:46:37.128Z,60.70
2018-05-13T17:49:04.689Z,62.80
2018-05-13T17:51:31.396Z,63.53
2018-05-13T17:53:59.987Z,61.43
2018-05-13T17:56:26.799Z,66.67
2018-05-13T17:58:53.541Z,62.93
2018-05-13T18:01:20.849Z,64.70
2018-05-13T18:03:48.752Z,66.80
2018-05-13T18:06:15.443Z,71.63
2018-05-13T18:08:42.150Z,69.80
2018-05-13T18:11:10.942Z,62.23
2018-05-13T18:13:37.679Z,77.63
2018-05-13T18:16:04.395Z,63.60
2018-05-13T18:18:31.197Z,65.10
2018-05-13T18:20:57.861Z,68.70
2018-05-13T18:23:25.936Z,72.73
2018-05-13T18:25:53.071Z,64.13
2018-05-13T18:28:19.884Z,62.57
2018-05-13T18:30:47.361Z,71.47
2018-05-13T18:33:14.060Z,69.63
2018-05-13T18:35:40.787Z,64.43
2018-05-13T18:38:07.528Z,68.13
2018-05-13T18:40:34.667Z,70.83
2018-05-13T18:43:02.343Z,66.67
2018-05-13T18:45:32.243Z,68.10
2018-05-13T18:47:59.903Z,63.47
2018-05-13T18:50:26.605Z,65.43
2018-05-13T18:52:54.195Z,65.83
2018-05-13T18:55:21.987Z,73.53
2018-05-13T18:57:50.307Z,72.23
2018-05-13T19:00:17.667Z,73.90
2018-05-13T19:02:45.512Z,68.13
2018-05-13T19:05:12.925Z,69.90
2018-05-13T19:07:39.821Z,66.40
2018-05-13T19:10:06.529Z,79.60
2018-05-13T19:12:35.048Z,73.60
2018-05-13T19:15:02.755Z,68.30
2018-05-13T19:17:29.452Z,68.63
2018-05-13T19:19:56.144Z,73.13
2018-05-13T19:22:22.879Z,66.73
2018-05-13T19:24:50.964Z,70.20
2018-05-13T19:27:17.787Z,68.63
2018-05-13T19:29:45.080Z,69.83
2018-05-13T19:32:13.010Z,68.57
2018-05-13T19:34:39.720Z,73.80
2018-05-13T19:37:06.541Z,75.20
2018-05-13T19:39:33.267Z,69.00
2018-05-13T19:42:00.090Z,68.90
2018-05-13T19:44:27.752Z,76.43
2018-05-13T19:46:55.377Z,74.67
2018-05-13T19:49:22.130Z,68.87
2018-05-13T19:51:48.978Z,75.87
2018-05-13T19:54:18.613Z,76.17
2018-05-13T19:56:45.309Z,76.67
2018-05-13T19:59:12.008Z,75.80
2018-05-13T20:01:38.741Z,73.80
2018-05-13T20:04:05.446Z,61.67
2018-05-13T20:06:32.733Z,66.13
2018-05-13T20:08:59.535Z,66.73
2018-05-13T20:11:27.396Z,79.30
2018-05-13T20:13:54.127Z,68.63
2018-05-13T20:16:21.640Z,68.87
2018-05-13T20:18:48.329Z,70.37
2018-05-13T20:21:15.056Z,62.20
2018-05-13T20:23:42.281Z,65.67
2018-05-13T20:26:09.103Z,62.47
2018-05-13T20:28:36.715Z,67.20
2018-05-13T20:31:03.421Z,67.10
2018-05-13T20:33:32.983Z,70.10
2018-05-13T20:35:59.748Z,72.17
2018-05-13T20:38:27.415Z,68.83
2018-05-13T20:40:55.364Z,64.10
2018-05-13T20:43:22.186Z,68.60
2018-05-13T20:45:50.368Z,65.60
2018-05-13T20:48:18.865Z,69.07
2018-05-13T20:50:45.733Z,65.33
2018-05-13T20:53:12.451Z,64.33
2018-05-13T20:55:39.158Z,62.47
2018-05-13T20:58:07.690Z,63.33
2018-05-13T21:00:35.984Z,68.33
2018-05-13T21:03:03.572Z,68.23
2018-05-13T21:05:30.313Z,69.63
2018-05-13T21:07:58.328Z,65.67
2018-05-13T21:10:25.049Z,72.27
2018-05-13T21:12:51.747Z,70.07
2018-05-13T21:15:18.434Z,73.90
2018-05-13T21:17:45.172Z,61.70
2018-05-13T21:20:12.682Z,69.07
2018-05-13T21:22:39.406Z,71.00
2018-05-13T21:25:06.993Z,70.67
2018-05-13T21:27:33.752Z,68.23
2018-05-13T21:30:00.452Z,69.23
2018-05-13T21:32:27.174Z,73.73
2018-05-13T21:34:54.664Z,67.17
2018-05-13T21:37:21.406Z,64.70
2018-05-13T21:39:48.887Z,67.40
2018-05-13T21:42:16.854Z,71.23
2018-05-13T21:44:43.573Z,66.83
2018-05-13T21:47:11.880Z,79.93
2018-05-13T21:49:38.539Z,75.03
2018-05-13T21:52:05.287Z,71.37
2018-05-13T21:54:32.022Z,70.20
2018-05-13T21:56:58.716Z,76.30
2018-05-13T21:59:25.438Z,75.50
2018-05-13T22:01:52.153Z,79.83
2018-05-13T22:04:18.889Z,74.37
2018-05-13T22:06:45.593Z,70.53
2018-05-13T22:09:12.363Z,74.00
2018-05-13T22:11:39.083Z,77.67
2018-05-13T22:14:05.805Z,74.57
2018-05-13T22:16:32.493Z,71.90
2018-05-13T22:18:59.217Z,73.33
2018-05-13T22:21:25.936Z,79.27
2018-05-13T22:23:52.684Z,74.17
2018-05-13T22:26:19.395Z,86.20
2018-05-13T22:31:19.197Z,80.30
2018-05-13T22:33:45.871Z,83.60
2018-05-13T22:36:12.580Z,88.10
2018-05-13T22:38:39.280Z,82.63
2018-05-13T22:41:05.966Z,79.50
2018-05-13T22:43:32.695Z,72.77
2018-05-13T22:45:59.391Z,88.30
2018-05-13T22:48:26.140Z,78.40
2018-05-13T22:50:52.821Z,79.90
2018-05-13T22:53:19.536Z,87.87
2018-05-13T22:55:46.334Z,89.80
2018-05-13T22:58:13.047Z,86.37
2018-05-13T23:00:39.732Z,91.83
2018-05-13T23:03:06.572Z,87.70
2018-05-13T23:05:33.305Z,92.77
2018-05-13T23:07:59.973Z,86.23
2018-05-13T23:10:26.678Z,87.20
2018-05-13T23:12:53.360Z,92.27
2018-05-13T23:15:20.111Z,88.13
2018-05-13T23:17:46.814Z,91.27
2018-05-13T23:20:13.525Z,92.07
2018-05-13T23:22:40.231Z,88.53
2018-05-13T23:25:07.013Z,90.13
2018-05-13T23:27:33.724Z,97.60
2018-05-13T23:30:00.443Z,88.57
2018-05-13T23:32:27.119Z,86.87
2018-05-13T23:34:53.820Z,91.67
2018-05-13T23:37:20.516Z,93.47
2018-05-13T23:39:47.239Z,94.33
2018-05-13T23:42:13.932Z,90.47
2018-05-13T23:44:40.626Z,101.37
2018-05-13T23:47:07.340Z,107.07
2018-05-13T23:49:34.060Z,102.20
2018-05-13T23:52:00.792Z,96.90
2018-05-13T23:54:27.480Z,108.07
2018-05-13T23:59:27.417Z,107.77
